createdAt,value
2019-05-19T00:01:44.236Z,8.00
2019-05-19T00:04:11.711Z,7.87
2019-05-19T00:06:39.150Z,8.27
2019-05-19T00:09:06.756Z,8.37
2019-05-19T00:11:34.200Z,8.13
2019-05-19T00:14:01.947Z,8.67
2019-05-19T00:16:29.386Z,8.93
2019-05-19T00:18:56.772Z,8.83
2019-05-19T00:21:24.340Z,8.50
2019-05-19T00:23:51.778Z,8.60
2019-05-19T00:26:19.365Z,6.83
2019-05-19T00:28:46.798Z,7.63
2019-05-19T00:31:14.234Z,8.80
2019-05-19T00:33:41.772Z,9.30
2019-05-19T00:36:09.286Z,8.03
2019-05-19T00:38:36.693Z,8.27
2019-05-19T00:41:04.170Z,7.93
2019-05-19T00:43:31.750Z,6.77
2019-05-19T00:45:59.394Z,7.00
2019-05-19T00:48:26.833Z,8.23
2019-05-19T00:50:54.275Z,8.20
2019-05-19T00:53:21.744Z,8.97
2019-05-19T00:55:50.533Z,9.40
2019-05-19T00:58:18.618Z,8.93
2019-05-19T01:00:46.146Z,8.93
2019-05-19T01:03:13.562Z,8.10
2019-05-19T01:05:40.949Z,7.70
2019-05-19T01:08:08.411Z,7.77
2019-05-19T01:10:35.829Z,9.10
2019-05-19T01:13:03.280Z,7.70
2019-05-19T01:15:30.741Z,8.90
2019-05-19T01:17:58.086Z,7.90
2019-05-19T01:20:25.508Z,7.83
2019-05-19T01:22:52.938Z,7.43
2019-05-19T01:25:20.433Z,6.13
2019-05-19T01:27:47.816Z,6.03
2019-05-19T01:30:15.782Z,6.03
2019-05-19T01:32:43.201Z,5.57
2019-05-19T01:35:11.131Z,5.33
2019-05-19T01:37:38.599Z,5.87
2019-05-19T01:40:06.787Z,5.67
2019-05-19T01:42:34.187Z,5.80
2019-05-19T01:45:01.697Z,4.97
2019-05-19T01:47:30.140Z,5.47
2019-05-19T01:50:16.557Z,5.60
2019-05-19T01:52:26.987Z,6.10
2019-05-19T01:54:54.417Z,4.37
2019-05-19T01:57:21.856Z,5.37
2019-05-19T01:59:49.252Z,5.07
2019-05-19T02:02:17.698Z,5.00
2019-05-19T02:04:45.175Z,4.87
2019-05-19T02:07:12.542Z,5.43
2019-05-19T02:09:40.018Z,4.83
2019-05-19T02:12:07.457Z,4.80
2019-05-19T02:14:34.945Z,5.10
2019-05-19T02:17:02.439Z,4.97
2019-05-19T02:19:29.808Z,5.17
2019-05-19T02:21:57.258Z,4.90
2019-05-19T02:24:24.694Z,5.80
2019-05-19T02:26:52.122Z,5.43
2019-05-19T02:29:19.999Z,5.00
2019-05-19T02:31:47.456Z,5.20
2019-05-19T02:34:15.601Z,5.10
2019-05-19T02:36:43.111Z,4.97
2019-05-19T02:39:11.104Z,5.47
2019-05-19T02:41:41.434Z,5.07
2019-05-19T02:44:09.857Z,5.40
2019-05-19T02:46:38.976Z,4.70
2019-05-19T02:49:07.725Z,4.60
2019-05-19T02:51:37.023Z,4.47
2019-05-19T02:54:05.976Z,5.20
2019-05-19T02:56:33.941Z,6.07
2019-05-19T02:59:01.876Z,5.37
2019-05-19T03:01:29.575Z,4.20
2019-05-19T03:03:57.058Z,4.73
2019-05-19T03:06:24.554Z,4.97
2019-05-19T03:08:51.935Z,5.27
2019-05-19T03:11:19.426Z,4.70
2019-05-19T03:13:46.946Z,5.30
2019-05-19T03:16:14.321Z,5.33
2019-05-19T03:18:41.743Z,5.57
2019-05-19T03:21:11.610Z,5.70
2019-05-19T03:23:38.538Z,5.63
2019-05-19T03:26:05.993Z,5.80
2019-05-19T03:28:33.437Z,5.03
2019-05-19T03:31:11.615Z,5.60
2019-05-19T03:33:41.268Z,5.83
2019-05-19T03:36:09.604Z,6.53
2019-05-19T03:38:37.035Z,6.17
2019-05-19T03:41:04.479Z,6.30
2019-05-19T03:43:32.257Z,5.90
2019-05-19T03:45:59.672Z,6.17
2019-05-19T03:48:27.095Z,6.30
2019-05-19T03:50:54.526Z,6.07
2019-05-19T03:53:22.022Z,6.03
2019-05-19T03:55:49.483Z,5.23
2019-05-19T03:58:16.904Z,5.10
2019-05-19T04:00:44.363Z,5.63
2019-05-19T04:03:11.737Z,5.33
2019-05-19T04:05:39.226Z,5.87
2019-05-19T04:08:06.697Z,5.57
2019-05-19T04:10:34.996Z,6.27
2019-05-19T04:13:02.440Z,5.53
2019-05-19T04:15:29.898Z,6.30
2019-05-19T04:17:57.290Z,5.63
2019-05-19T04:20:24.721Z,5.33
2019-05-19T04:22:52.149Z,5.90
2019-05-19T04:25:19.693Z,5.77
2019-05-19T04:27:47.148Z,5.43
2019-05-19T04:30:15.192Z,5.63
2019-05-19T04:32:42.706Z,4.87
2019-05-19T04:35:10.303Z,5.77
2019-05-19T04:37:37.916Z,5.87
2019-05-19T04:40:05.673Z,4.90
2019-05-19T04:42:33.084Z,5.03
2019-05-19T04:45:00.489Z,4.87
2019-05-19T04:47:27.970Z,5.30
2019-05-19T04:49:55.450Z,5.97
2019-05-19T04:52:22.935Z,6.87
2019-05-19T04:54:50.505Z,6.47
2019-05-19T04:57:17.900Z,5.67
2019-05-19T04:59:45.336Z,5.90
2019-05-19T05:02:12.800Z,6.10
2019-05-19T05:04:40.336Z,5.13
2019-05-19T05:07:07.857Z,5.20
2019-05-19T05:09:35.274Z,5.57
2019-05-19T05:12:02.702Z,4.87
2019-05-19T05:14:30.162Z,4.70
2019-05-19T05:17:00.155Z,4.87
2019-05-19T05:19:27.583Z,5.03
2019-05-19T05:21:55.031Z,5.67
2019-05-19T05:24:23.020Z,5.47
2019-05-19T05:26:50.516Z,5.60
2019-05-19T05:29:17.965Z,6.33
2019-05-19T05:31:45.419Z,6.00
2019-05-19T05:34:12.889Z,6.67
2019-05-19T05:36:40.392Z,6.13
2019-05-19T05:39:08.042Z,6.17
2019-05-19T05:41:35.841Z,6.57
2019-05-19T05:44:03.224Z,6.83
2019-05-19T05:46:30.659Z,7.50
2019-05-19T05:48:58.071Z,5.87
2019-05-19T05:51:25.437Z,6.50
2019-05-19T05:53:52.971Z,6.77
2019-05-19T05:56:20.423Z,6.30
2019-05-19T05:58:47.815Z,5.80
2019-05-19T06:01:15.283Z,7.07
2019-05-19T06:03:42.790Z,6.93
2019-05-19T06:06:10.235Z,6.80
2019-05-19T06:08:37.782Z,7.00
2019-05-19T06:11:05.168Z,6.73
2019-05-19T06:13:32.651Z,7.67
2019-05-19T06:16:00.209Z,7.43
2019-05-19T06:18:27.548Z,7.20
2019-05-19T06:20:54.996Z,7.30
2019-05-19T06:23:22.418Z,8.20
2019-05-19T06:25:49.796Z,7.37
2019-05-19T06:28:18.712Z,7.40
2019-05-19T06:30:46.137Z,7.50
2019-05-19T06:33:13.659Z,7.33
2019-05-19T06:35:41.147Z,6.50
2019-05-19T06:38:10.784Z,6.73
2019-05-19T06:40:38.556Z,6.57
2019-05-19T06:43:06.098Z,5.80
2019-05-19T06:45:33.569Z,6.53
2019-05-19T06:48:01.085Z,6.47
2019-05-19T06:50:28.574Z,6.67
2019-05-19T06:53:11.197Z,6.57
2019-05-19T06:55:25.535Z,7.03
2019-05-19T06:57:53.109Z,7.47
2019-05-19T07:00:21.436Z,6.60
2019-05-19T07:02:49.933Z,5.83
2019-05-19T07:05:17.459Z,5.90
2019-05-19T07:07:45.878Z,5.23
2019-05-19T07:10:13.498Z,6.03
2019-05-19T07:12:40.953Z,5.93
2019-05-19T07:15:09.477Z,5.27
2019-05-19T07:17:36.957Z,5.60
2019-05-19T07:20:04.601Z,5.30
2019-05-19T07:22:32.160Z,5.30
2019-05-19T07:24:59.702Z,5.20
2019-05-19T07:27:27.150Z,4.73
2019-05-19T07:29:54.580Z,4.83
2019-05-19T07:32:22.044Z,4.63
2019-05-19T07:34:49.480Z,5.80
2019-05-19T07:37:16.868Z,4.97
2019-05-19T07:39:44.336Z,5.60
2019-05-19T07:42:12.044Z,6.13
2019-05-19T07:44:39.488Z,5.67
2019-05-19T07:47:07.066Z,6.20
2019-05-19T07:49:34.572Z,6.37
2019-05-19T07:52:02.104Z,6.70
2019-05-19T07:54:29.599Z,6.97
2019-05-19T07:56:57.012Z,6.37
2019-05-19T07:59:24.468Z,6.40
2019-05-19T08:01:51.895Z,6.83
2019-05-19T08:04:19.878Z,6.07
2019-05-19T08:06:47.385Z,6.37
2019-05-19T08:09:14.857Z,6.53
2019-05-19T08:11:42.425Z,6.00
2019-05-19T08:14:09.841Z,6.37
2019-05-19T08:16:37.286Z,6.07
2019-05-19T08:19:04.717Z,7.20
2019-05-19T08:21:32.153Z,6.47
2019-05-19T08:24:01.072Z,5.97
2019-05-19T08:26:28.789Z,5.77
2019-05-19T08:28:56.209Z,6.10
2019-05-19T08:31:23.576Z,5.80
2019-05-19T08:33:51.142Z,6.33
2019-05-19T08:36:18.659Z,6.07
2019-05-19T08:38:46.070Z,6.07
2019-05-19T08:41:13.504Z,6.00
2019-05-19T08:43:41.094Z,5.43
2019-05-19T08:46:08.515Z,6.17
2019-05-19T08:48:35.978Z,6.03
2019-05-19T08:51:03.593Z,5.63
2019-05-19T08:53:30.994Z,6.03
2019-05-19T08:55:58.414Z,5.53
2019-05-19T08:58:25.918Z,6.07
2019-05-19T09:00:53.404Z,4.93
2019-05-19T09:03:20.824Z,6.27
2019-05-19T09:05:48.275Z,5.47
2019-05-19T09:08:15.675Z,5.00
2019-05-19T09:10:43.182Z,4.70
2019-05-19T09:13:10.717Z,4.67
2019-05-19T09:15:38.199Z,4.50
2019-05-19T09:18:05.669Z,4.73
2019-05-19T09:20:33.265Z,3.50
2019-05-19T09:23:00.630Z,4.17
2019-05-19T09:25:28.148Z,3.80
2019-05-19T09:27:55.589Z,3.90
2019-05-19T09:30:23.261Z,3.77
2019-05-19T09:32:50.686Z,4.10
2019-05-19T09:35:18.321Z,3.33
2019-05-19T09:37:45.756Z,3.83
2019-05-19T09:40:13.620Z,4.07
2019-05-19T09:42:40.993Z,3.73
2019-05-19T09:45:09.105Z,3.90
2019-05-19T09:47:36.700Z,4.33
2019-05-19T09:50:05.222Z,3.40
2019-05-19T09:52:32.691Z,3.77
2019-05-19T09:55:00.153Z,3.70
2019-05-19T09:57:27.575Z,3.53
2019-05-19T09:59:55.027Z,3.20
2019-05-19T10:02:22.405Z,3.30
2019-05-19T10:04:49.877Z,3.07
2019-05-19T10:07:17.339Z,3.13
2019-05-19T10:09:57.391Z,2.80
2019-05-19T10:12:24.866Z,3.43
2019-05-19T10:14:52.269Z,2.70
2019-05-19T10:17:20.309Z,3.53
2019-05-19T10:19:47.751Z,3.10
2019-05-19T10:22:15.142Z,3.23
2019-05-19T10:24:57.817Z,2.63
2019-05-19T10:27:11.925Z,3.10
2019-05-19T10:29:39.307Z,2.47
2019-05-19T10:32:06.744Z,2.80
2019-05-19T10:34:34.192Z,3.00
2019-05-19T10:37:02.128Z,3.03
2019-05-19T10:39:29.555Z,3.40
2019-05-19T10:41:57.069Z,2.60
2019-05-19T10:44:24.551Z,2.87
2019-05-19T10:46:51.993Z,2.80
2019-05-19T10:49:19.438Z,2.77
2019-05-19T10:51:47.004Z,3.23
2019-05-19T10:54:14.430Z,3.17
2019-05-19T10:56:41.887Z,2.77
2019-05-19T10:59:09.366Z,2.90
2019-05-19T11:01:36.719Z,3.00
2019-05-19T11:04:04.246Z,2.80
2019-05-19T11:06:31.727Z,2.87
2019-05-19T11:08:59.158Z,2.97
2019-05-19T11:11:26.707Z,2.30
2019-05-19T11:13:54.130Z,2.63
2019-05-19T11:16:21.490Z,2.80
2019-05-19T11:18:49.043Z,2.70
2019-05-19T11:21:16.484Z,2.40
2019-05-19T11:23:43.965Z,3.13
2019-05-19T11:26:11.353Z,2.70
2019-05-19T11:28:38.959Z,5.47
2019-05-19T11:31:06.566Z,3.70
2019-05-19T11:33:34.035Z,2.57
2019-05-19T11:36:01.502Z,3.00
2019-05-19T11:38:29.120Z,3.73
2019-05-19T11:40:56.585Z,2.57
2019-05-19T11:43:24.006Z,3.43
2019-05-19T11:45:51.464Z,6.17
2019-05-19T11:48:19.002Z,2.60
2019-05-19T11:50:46.467Z,2.80
2019-05-19T11:53:13.875Z,3.10
2019-05-19T11:55:41.390Z,2.93
2019-05-19T11:58:08.863Z,3.10
2019-05-19T12:00:36.273Z,3.00
2019-05-19T12:03:03.730Z,3.00
2019-05-19T12:05:31.384Z,2.80
2019-05-19T12:07:58.840Z,3.17
2019-05-19T12:10:26.244Z,2.50
2019-05-19T12:12:53.769Z,2.67
2019-05-19T12:15:21.414Z,2.83
2019-05-19T12:17:48.821Z,3.10
2019-05-19T12:20:16.208Z,2.73
2019-05-19T12:22:43.717Z,2.87
2019-05-19T12:25:11.392Z,2.70
2019-05-19T12:27:38.766Z,2.70
2019-05-19T12:30:07.075Z,2.60
2019-05-19T12:32:34.809Z,2.77
2019-05-19T12:35:02.259Z,3.00
2019-05-19T12:37:30.240Z,2.83
2019-05-19T12:39:57.789Z,2.93
2019-05-19T12:42:25.254Z,3.60
2019-05-19T12:44:52.616Z,3.40
2019-05-19T12:47:20.073Z,3.10
2019-05-19T12:49:47.512Z,3.20
2019-05-19T12:52:14.991Z,3.00
2019-05-19T12:54:42.531Z,2.63
2019-05-19T12:57:10.156Z,3.10
2019-05-19T12:59:37.657Z,2.80
2019-05-19T13:02:05.225Z,3.53
2019-05-19T13:04:32.743Z,2.80
2019-05-19T13:07:00.187Z,3.07
2019-05-19T13:09:27.672Z,2.83
2019-05-19T13:11:55.094Z,3.57
2019-05-19T13:14:22.574Z,3.30
2019-05-19T13:16:49.956Z,3.80
2019-05-19T13:19:17.501Z,3.13
2019-05-19T13:21:44.994Z,3.53
2019-05-19T13:24:12.561Z,3.27
2019-05-19T13:26:55.620Z,3.67
2019-05-19T13:29:10.228Z,3.17
2019-05-19T13:31:37.708Z,3.60
2019-05-19T13:34:05.285Z,3.60
2019-05-19T13:36:33.371Z,3.70
2019-05-19T13:39:00.933Z,3.03
2019-05-19T13:41:28.385Z,3.47
2019-05-19T13:43:55.823Z,3.77
2019-05-19T13:46:23.288Z,3.47
2019-05-19T13:48:50.809Z,3.53
2019-05-19T13:51:18.205Z,2.97
2019-05-19T13:53:45.680Z,3.20
2019-05-19T13:56:13.101Z,3.60
2019-05-19T13:58:40.541Z,3.70
2019-05-19T14:01:08.016Z,3.47
2019-05-19T14:03:35.477Z,3.70
2019-05-19T14:06:03.001Z,3.20
2019-05-19T14:08:30.453Z,4.00
2019-05-19T14:10:57.940Z,3.80
2019-05-19T14:13:25.466Z,3.50
2019-05-19T14:15:52.879Z,3.53
2019-05-19T14:18:20.276Z,3.70
2019-05-19T14:20:47.735Z,3.80
2019-05-19T14:23:15.183Z,4.33
2019-05-19T14:25:42.648Z,3.97
2019-05-19T14:28:10.104Z,3.93
2019-05-19T14:30:37.527Z,4.20
2019-05-19T14:33:05.158Z,4.10
2019-05-19T14:35:32.628Z,4.10
2019-05-19T14:38:00.530Z,4.17
2019-05-19T14:40:28.073Z,3.57
2019-05-19T14:42:59.199Z,4.07
2019-05-19T14:45:26.628Z,4.03
2019-05-19T14:47:54.091Z,4.63
2019-05-19T14:50:21.641Z,3.67
2019-05-19T14:52:49.027Z,3.90
2019-05-19T14:55:16.689Z,4.37
2019-05-19T14:57:45.568Z,4.37
2019-05-19T15:00:13.988Z,4.30
2019-05-19T15:02:41.471Z,4.30
2019-05-19T15:05:09.742Z,4.10
2019-05-19T15:07:37.329Z,4.33
2019-05-19T15:10:04.922Z,4.30
2019-05-19T15:12:32.424Z,4.50
2019-05-19T15:14:59.856Z,4.47
2019-05-19T15:17:27.281Z,4.47
2019-05-19T15:19:54.636Z,4.67
2019-05-19T15:22:22.064Z,4.83
2019-05-19T15:24:49.521Z,4.60
2019-05-19T15:27:16.917Z,4.50
2019-05-19T15:29:44.394Z,4.73
2019-05-19T15:32:11.840Z,4.73
2019-05-19T15:34:39.416Z,4.90
2019-05-19T15:37:07.342Z,4.97
2019-05-19T15:39:34.903Z,4.93
2019-05-19T15:42:02.464Z,4.30
2019-05-19T15:44:29.934Z,5.13
2019-05-19T15:46:57.336Z,4.57
2019-05-19T15:49:24.832Z,4.33
2019-05-19T15:52:01.907Z,4.50
2019-05-19T15:54:21.670Z,4.70
2019-05-19T15:56:49.093Z,4.97
2019-05-19T15:59:16.552Z,4.27
2019-05-19T16:01:44.006Z,3.87
2019-05-19T16:04:11.399Z,4.47
2019-05-19T16:06:39.232Z,3.83
2019-05-19T16:09:07.179Z,3.70
2019-05-19T16:11:34.660Z,3.67
2019-05-19T16:14:02.274Z,3.60
2019-05-19T16:16:29.650Z,3.30
2019-05-19T16:18:57.113Z,4.10
2019-05-19T16:21:24.541Z,3.97
2019-05-19T16:23:52.030Z,3.90
2019-05-19T16:26:19.404Z,3.47
2019-05-19T16:28:46.852Z,3.33
2019-05-19T16:31:14.310Z,3.70
2019-05-19T16:33:41.704Z,3.70
2019-05-19T16:36:09.277Z,3.90
2019-05-19T16:38:37.355Z,3.87
2019-05-19T16:41:04.909Z,3.00
2019-05-19T16:43:32.502Z,3.70
2019-05-19T16:45:59.977Z,3.67
2019-05-19T16:48:27.518Z,3.73
2019-05-19T16:50:55.057Z,3.60
2019-05-19T16:53:22.821Z,3.13
2019-05-19T16:55:50.310Z,3.33
2019-05-19T16:58:21.143Z,3.90
2019-05-19T17:00:47.125Z,3.40
2019-05-19T17:03:14.580Z,3.47
2019-05-19T17:05:42.063Z,3.50
2019-05-19T17:08:09.486Z,3.63
2019-05-19T17:10:37.125Z,3.47
2019-05-19T17:13:04.535Z,3.40
2019-05-19T17:15:31.944Z,3.77
2019-05-19T17:17:59.465Z,3.13
2019-05-19T17:20:30.578Z,3.23
2019-05-19T17:22:56.370Z,3.10
2019-05-19T17:25:23.816Z,2.87
2019-05-19T17:27:51.428Z,2.90
2019-05-19T17:30:20.849Z,3.40
2019-05-19T17:32:51.380Z,3.73
2019-05-19T17:35:20.271Z,3.00
2019-05-19T17:38:29.481Z,3.87
2019-05-19T17:45:16.319Z,3.17
2019-05-19T17:47:44.057Z,3.40
2019-05-19T17:50:13.015Z,3.70
2019-05-19T17:56:07.979Z,3.73
2019-05-19T17:58:35.832Z,3.60
2019-05-19T18:01:05.630Z,3.83
2019-05-19T18:03:33.681Z,4.50
2019-05-19T18:06:01.065Z,5.70
2019-05-19T18:08:28.555Z,5.80
2019-05-19T18:14:55.095Z,6.37
2019-05-19T18:17:22.677Z,6.77
2019-05-19T18:19:50.251Z,7.60
2019-05-19T18:22:17.771Z,5.73
2019-05-19T18:24:45.268Z,7.23
2019-05-19T18:27:12.917Z,7.77
2019-05-19T18:29:40.291Z,8.40
2019-05-19T18:32:07.803Z,9.30
2019-05-19T18:34:35.310Z,10.03
2019-05-19T18:37:03.447Z,9.77
2019-05-19T18:39:31.022Z,5.53
2019-05-19T18:41:58.530Z,6.47
2019-05-19T18:44:25.943Z,4.73
2019-05-19T18:46:53.412Z,5.17
2019-05-19T18:49:20.867Z,5.50
2019-05-19T18:51:48.444Z,5.73
2019-05-19T18:54:15.831Z,5.20
2019-05-19T18:56:43.531Z,5.57
2019-05-19T18:59:11.088Z,6.77
2019-05-19T19:01:38.675Z,6.20
2019-05-19T19:04:06.428Z,6.47
2019-05-19T19:06:34.354Z,6.07
2019-05-19T19:09:02.273Z,5.93
2019-05-19T19:11:30.002Z,6.23
2019-05-19T19:13:57.399Z,7.03
2019-05-19T19:16:24.896Z,7.90
2019-05-19T19:18:52.415Z,10.57
2019-05-19T19:21:19.873Z,11.33
2019-05-19T19:23:47.407Z,12.77
2019-05-19T19:26:14.805Z,9.50
2019-05-19T19:28:42.337Z,8.73
2019-05-19T19:31:09.815Z,9.00
2019-05-19T19:33:37.314Z,10.30
2019-05-19T19:36:05.280Z,9.93
2019-05-19T19:38:32.864Z,9.27
2019-05-19T19:41:00.488Z,10.27
2019-05-19T19:43:27.929Z,9.83
2019-05-19T19:45:55.375Z,10.97
2019-05-19T19:48:22.876Z,10.60
2019-05-19T19:50:50.374Z,10.83
2019-05-19T19:53:17.806Z,7.57
2019-05-19T19:55:45.261Z,6.23
2019-05-19T19:58:12.711Z,6.70
2019-05-19T20:00:42.243Z,8.70
2019-05-19T20:03:09.761Z,7.63
2019-05-19T20:05:37.441Z,7.77
2019-05-19T20:08:05.081Z,7.00
2019-05-19T20:10:32.520Z,6.73
2019-05-19T20:13:00.038Z,6.20
2019-05-19T20:15:27.434Z,6.03
2019-05-19T20:17:54.917Z,5.63
2019-05-19T20:20:24.143Z,6.27
2019-05-19T20:22:52.707Z,6.73
2019-05-19T20:25:20.282Z,5.83
2019-05-19T20:27:47.756Z,6.87
2019-05-19T20:30:15.309Z,6.23
2019-05-19T20:32:42.810Z,5.60
2019-05-19T20:35:10.904Z,6.17
2019-05-19T20:37:38.412Z,5.63
2019-05-19T20:40:06.119Z,5.17
2019-05-19T20:42:33.504Z,5.70
2019-05-19T20:45:01.103Z,5.37
2019-05-19T20:47:28.567Z,6.23
2019-05-19T20:49:56.007Z,5.20
2019-05-19T20:52:23.450Z,5.50
2019-05-19T20:54:50.932Z,6.03
2019-05-19T20:57:18.369Z,5.13
2019-05-19T20:59:45.789Z,5.40
2019-05-19T21:02:13.233Z,6.13
2019-05-19T21:04:40.679Z,5.53
2019-05-19T21:07:08.181Z,5.70
2019-05-19T21:09:35.577Z,5.53
2019-05-19T21:12:03.099Z,6.03
2019-05-19T21:14:30.606Z,5.77
2019-05-19T21:16:58.917Z,6.43
2019-05-19T21:19:28.595Z,5.93
2019-05-19T21:21:56.150Z,6.33
2019-05-19T21:24:24.767Z,5.43
2019-05-19T21:26:53.074Z,6.37
2019-05-19T21:29:20.683Z,6.10
2019-05-19T21:31:48.114Z,5.57
2019-05-19T21:34:15.831Z,6.40
2019-05-19T21:36:43.291Z,6.77
2019-05-19T21:39:10.832Z,6.40
2019-05-19T21:41:38.339Z,5.63
2019-05-19T21:44:05.840Z,3.70
2019-05-19T21:46:33.300Z,4.23
2019-05-19T21:49:00.684Z,4.37
2019-05-19T21:51:28.167Z,4.37
2019-05-19T21:53:55.663Z,3.87
2019-05-19T21:56:23.083Z,4.23
2019-05-19T21:58:50.518Z,4.40
2019-05-19T22:01:23.307Z,5.03
2019-05-19T22:03:47.548Z,3.30
2019-05-19T22:06:15.713Z,3.70
2019-05-19T22:08:43.183Z,3.90
2019-05-19T22:11:10.668Z,4.00
2019-05-19T22:13:38.146Z,3.97
2019-05-19T22:16:13.124Z,3.63
2019-05-19T22:18:34.983Z,3.43
2019-05-19T22:21:02.695Z,4.50
2019-05-19T22:23:30.262Z,3.70
2019-05-19T22:25:57.761Z,3.70
2019-05-19T22:28:25.362Z,3.80
2019-05-19T22:30:52.836Z,3.63
2019-05-19T22:33:20.363Z,3.77
2019-05-19T22:35:47.767Z,4.03
2019-05-19T22:38:15.229Z,3.50
2019-05-19T22:40:42.838Z,3.93
2019-05-19T22:43:10.261Z,4.13
2019-05-19T22:45:37.776Z,3.40
2019-05-19T22:48:05.243Z,3.53
2019-05-19T22:50:32.674Z,3.60
2019-05-19T22:53:00.128Z,3.40
2019-05-19T22:55:27.618Z,3.20
2019-05-19T22:57:55.037Z,3.30
2019-05-19T23:00:22.833Z,3.17
2019-05-19T23:02:50.295Z,3.10
2019-05-19T23:05:18.545Z,3.77
2019-05-19T23:07:45.980Z,2.80
2019-05-19T23:10:14.222Z,3.40
2019-05-19T23:12:41.631Z,3.70
2019-05-19T23:15:09.695Z,2.80
2019-05-19T23:17:37.168Z,3.40
2019-05-19T23:20:05.222Z,3.40
2019-05-19T23:22:32.768Z,3.33
2019-05-19T23:25:00.195Z,2.80
2019-05-19T23:27:27.634Z,3.10
2019-05-19T23:29:55.190Z,2.40
2019-05-19T23:32:22.753Z,3.20
2019-05-19T23:34:50.184Z,2.63
2019-05-19T23:37:17.716Z,3.10
2019-05-19T23:39:45.181Z,2.57
2019-05-19T23:42:12.624Z,2.60
2019-05-19T23:44:40.219Z,2.70
2019-05-19T23:47:07.718Z,2.47
2019-05-19T23:49:35.202Z,3.10
2019-05-19T23:52:02.721Z,3.40
2019-05-19T23:54:30.227Z,4.23
2019-05-19T23:56:57.711Z,4.20
2019-05-19T23:59:25.091Z,3.93
